Terminal Aerodrome Forecast
Issued by NWS Sioux Falls, SD

Home | Current Version | Previous Version | Text Only | Print | Product List | Glossary On
Versions: 1 2 3 4 5 6 7 8 9 10 11 12 13 14 15
000
FTUS43 KFSD 140522
TAFHON
TAF
KHON 140522Z 1406/1506 33008KT P6SM OVC035
     FM141500 33010KT 4SM -SN SCT012 OVC020
     FM141900 34012G20KT P6SM VCSH SCT020 OVC040
     FM150200 33008KT P6SM SCT020 BKN040=

USA.gov is the U.S. government's official web portal to all federal, state and local government web resources and services.